Time;durP1;ratioP1;P1;durP2;ratioP2;P2;SDS_P1;SDS_P2;PMS_P1;PMS_P2;Temp;Humidity;BMP_temperature;BMP_pressure;BME280_temperature;BME280_humidity;BME280_pressure;Samples;Min_cycle;Max_cycle;Signal;HPM_P1;HPM_P2
2022/09/26 00:01:24;;;;;;;;;;;20.20;88.30;;;;;;5075559;28;19925;-63
2022/09/26 00:03:51;;;;;;;;;;;19.80;88.00;;;;;;5071226;28;20632;-60
2022/09/26 00:06:17;;;;;;;;;;;19.90;88.00;;;;;;5071196;28;19928;-62
2022/09/26 00:08:43;;;;;;;;;;;20.20;88.10;;;;;;5074519;28;20011;-63
2022/09/26 00:11:08;;;;;;;;;;;19.90;87.90;;;;;;5075059;28;20015;-62
2022/09/26 00:13:35;;;;;;;;;;;20.00;88.00;;;;;;5075046;28;19928;-61
2022/09/26 00:16:01;;;;;;;;;;;20.00;87.90;;;;;;5073423;28;19928;-62
2022/09/26 00:18:26;;;;;;;;;;;20.00;87.90;;;;;;5074858;28;20359;-62
2022/09/26 00:20:52;;;;;;;;;;;20.00;87.90;;;;;;5074919;28;19932;-61
2022/09/26 00:23:18;;;;;;;;;;;19.90;87.80;;;;;;5074774;28;19925;-62
2022/09/26 00:25:44;;;;;;;;;;;19.90;87.70;;;;;;5075120;28;19957;-61
2022/09/26 00:28:10;;;;;;;;;;;20.10;87.80;;;;;;5072925;28;19925;-62
2022/09/26 00:30:36;;;;;;;;;;;19.90;87.70;;;;;;5074650;28;19924;-63
2022/09/26 00:33:01;;;;;;;;;;;19.90;87.70;;;;;;5074993;28;19924;-62
2022/09/26 00:35:27;;;;;;;;;;;20.10;87.80;;;;;;5074673;28;19964;-66
2022/09/26 00:37:53;;;;;;;;;;;20.20;87.80;;;;;;5071072;28;19943;-67
2022/09/26 00:40:18;;;;;;;;;;;20.10;87.90;;;;;;5074543;28;20337;-63
2022/09/26 00:42:44;;;;;;;;;;;20.10;87.80;;;;;;5074719;28;19971;-61
2022/09/26 00:45:10;;;;;;;;;;;20.20;87.80;;;;;;5074603;28;19931;-63
2022/09/26 00:47:37;;;;;;;;;;;20.10;88.10;;;;;;5072798;28;19924;-63
2022/09/26 00:50:07;;;;;;;;;;;20.10;87.70;;;;;;5072818;28;19924;-61
2022/09/26 00:52:35;;;;;;;;;;;20.00;87.60;;;;;;5073788;28;19924;-63
2022/09/26 00:55:01;;;;;;;;;;;19.90;88.10;;;;;;5056045;28;19932;-63
2022/09/26 00:57:29;;;;;;;;;;;20.10;87.50;;;;;;5056356;28;19924;-65
2022/09/26 00:59:56;;;;;;;;;;;20.00;87.60;;;;;;5071392;28;19924;-62
2022/09/26 01:02:24;;;;;;;;;;;19.90;87.60;;;;;;5059045;28;19924;-62
2022/09/26 01:04:50;;;;;;;;;;;19.90;87.80;;;;;;5065062;28;19964;-63
2022/09/26 01:07:16;;;;;;;;;;;20.00;87.60;;;;;;5074292;28;20009;-61
2022/09/26 01:09:42;;;;;;;;;;;19.80;87.50;;;;;;5065689;28;19925;-63
2022/09/26 01:12:07;;;;;;;;;;;20.20;88.00;;;;;;5054250;28;19925;-62
2022/09/26 01:14:33;;;;;;;;;;;20.10;87.70;;;;;;5052990;28;19929;-61
2022/09/26 01:16:59;;;;;;;;;;;19.80;87.50;;;;;;5052783;28;20453;-61
2022/09/26 01:19:33;;;;;;;;;;;19.90;87.50;;;;;;5056757;28;19931;-61
2022/09/26 01:22:20;;;;;;;;;;;20.00;87.50;;;;;;5065638;28;20378;-62
2022/09/26 01:25:04;;;;;;;;;;;20.00;87.60;;;;;;5056370;28;19924;-62
2022/09/26 01:27:45;;;;;;;;;;;20.20;87.70;;;;;;5074129;28;19974;-62
2022/09/26 01:30:11;;;;;;;;;;;19.90;87.50;;;;;;5071087;28;19924;-61
2022/09/26 01:32:49;;;;;;;;;;;20.10;88.10;;;;;;5054036;28;19925;-62
2022/09/26 01:35:24;;;;;;;;;;;19.80;86.50;;;;;;5052814;28;19925;-63
2022/09/26 01:37:49;;;;;;;;;;;19.90;87.50;;;;;;5056313;28;20032;-66
2022/09/26 01:40:17;;;;;;;;;;;19.80;87.40;;;;;;5073295;28;19990;-64
2022/09/26 01:42:43;;;;;;;;;;;20.10;87.60;;;;;;5054273;28;19936;-61
2022/09/26 01:45:13;;;;;;;;;;;19.80;87.40;;;;;;5053684;28;20370;-61
2022/09/26 01:47:40;;;;;;;;;;;20.00;87.50;;;;;;5037328;28;19932;-62
2022/09/26 01:50:09;;;;;;;;;;;19.80;87.50;;;;;;5060179;28;19924;-61
2022/09/26 01:52:36;;;;;;;;;;;;;;;;;;5058910;28;19925;-63
2022/09/26 01:55:17;;;;;;;;;;;19.80;86.10;;;;;;5058447;28;19924;-64
2022/09/26 01:58:11;;;;;;;;;;;19.80;87.50;;;;;;5072690;28;20005;-64
2022/09/26 02:00:36;;;;;;;;;;;19.70;87.40;;;;;;5072583;28;19931;-62
2022/09/26 02:03:03;;;;;;;;;;;19.90;87.50;;;;;;5071992;28;20370;-62
2022/09/26 02:05:31;;;;;;;;;;;19.80;87.40;;;;;;5072288;28;19931;-61
2022/09/26 02:07:58;;;;;;;;;;;19.80;87.40;;;;;;5072588;28;20015;-61
2022/09/26 02:10:26;;;;;;;;;;;19.70;87.30;;;;;;5059493;28;20293;-62
2022/09/26 02:12:53;;;;;;;;;;;20.00;87.40;;;;;;5068544;28;19925;-61
2022/09/26 02:15:19;;;;;;;;;;;20.00;88.00;;;;;;5053222;28;19968;-62
2022/09/26 02:17:48;;;;;;;;;;;19.80;87.30;;;;;;5064032;28;19973;-62
2022/09/26 02:20:18;;;;;;;;;;;19.80;87.30;;;;;;5077547;28;19938;-61
2022/09/26 02:22:43;;;;;;;;;;;20.20;87.50;;;;;;5077429;28;19928;-63
2022/09/26 02:25:10;;;;;;;;;;;20.00;87.40;;;;;;5076273;28;19966;-61
2022/09/26 02:27:36;;;;;;;;;;;19.70;87.20;;;;;;5077066;28;20413;-63
2022/09/26 02:30:02;;;;;;;;;;;19.90;87.30;;;;;;5075476;28;19924;-62
2022/09/26 02:32:28;;;;;;;;;;;19.80;87.20;;;;;;5076957;28;19925;-63
2022/09/26 02:34:54;;;;;;;;;;;19.70;87.20;;;;;;5067132;28;19933;-64
2022/09/26 02:37:20;;;;;;;;;;;19.90;87.50;;;;;;5056004;28;19989;-67
2022/09/26 02:39:45;;;;;;;;;;;19.80;87.30;;;;;;5057198;28;19925;-63
2022/09/26 02:42:30;;;;;;;;;;;19.70;87.20;;;;;;5073720;28;19925;-61
2022/09/26 02:44:55;;;;;;;;;;;19.90;87.30;;;;;;5074833;28;19950;-61
2022/09/26 02:47:30;;;;;;;;;;;19.90;87.30;;;;;;5076642;28;19925;-62
2022/09/26 02:50:15;;;;;;;;;;;19.90;87.30;;;;;;5076832;28;19932;-61
2022/09/26 02:52:47;;;;;;;;;;;19.80;87.20;;;;;;5076618;28;19977;-63
2022/09/26 02:55:20;;;;;;;;;;;20.00;87.30;;;;;;5074241;28;20385;-61
2022/09/26 02:57:51;;;;;;;;;;;19.90;87.30;;;;;;5055678;28;19921;-63
2022/09/26 03:00:20;;;;;;;;;;;19.90;87.30;;;;;;5058153;28;20408;-62
2022/09/26 03:02:55;;;;;;;;;;;19.90;87.30;;;;;;5076434;28;19967;-63
2022/09/26 03:05:25;;;;;;;;;;;19.70;87.20;;;;;;5076289;28;19924;-61
2022/09/26 03:07:53;;;;;;;;;;;19.80;87.20;;;;;;5073587;28;19924;-62
2022/09/26 03:10:18;;;;;;;;;;;20.10;87.80;;;;;;5075426;28;19970;-65
2022/09/26 03:12:44;;;;;;;;;;;19.90;87.30;;;;;;5075356;28;20413;-62
2022/09/26 03:15:10;;;;;;;;;;;19.80;87.20;;;;;;5076384;28;20006;-63
2022/09/26 03:17:35;;;;;;;;;;;19.80;87.20;;;;;;5057783;28;20317;-64
2022/09/26 03:20:09;;;;;;;;;;;19.70;87.20;;;;;;5075011;28;20014;-62
2022/09/26 03:22:36;;;;;;;;;;;19.70;87.20;;;;;;5076438;28;20301;-61
2022/09/26 03:25:01;;;;;;;;;;;19.90;87.30;;;;;;5074875;28;20003;-61
2022/09/26 03:27:27;;;;;;;;;;;19.70;87.20;;;;;;5054499;28;19979;-62
2022/09/26 03:29:53;;;;;;;;;;;19.90;87.40;;;;;;5074867;28;19968;-63
2022/09/26 03:32:18;;;;;;;;;;;19.80;87.30;;;;;;5074667;28;19924;-63
2022/09/26 03:34:45;;;;;;;;;;;19.80;87.80;;;;;;5076178;28;19930;-62
2022/09/26 03:37:11;;;;;;;;;;;19.90;87.40;;;;;;5074974;28;19960;-67
2022/09/26 03:39:36;;;;;;;;;;;19.80;87.30;;;;;;5061745;28;19931;-66
2022/09/26 03:42:02;;;;;;;;;;;20.00;87.50;;;;;;5075307;28;19924;-62
2022/09/26 03:44:28;;;;;;;;;;;19.90;87.40;;;;;;5075811;28;19932;-62
2022/09/26 03:46:54;;;;;;;;;;;19.50;87.20;;;;;;5075730;28;19958;-63
2022/09/26 03:49:19;;;;;;;;;;;19.60;87.30;;;;;;5065039;28;19928;-62
2022/09/26 03:51:45;;;;;;;;;;;20.00;87.70;;;;;;5055764;28;20282;-62
2022/09/26 03:54:11;;;;;;;;;;;19.60;87.40;;;;;;5061412;28;20427;-63
2022/09/26 03:56:37;;;;;;;;;;;20.00;88.10;;;;;;5075732;28;20397;-62
2022/09/26 03:59:03;;;;;;;;;;;19.60;87.40;;;;;;5071165;28;19932;-63
2022/09/26 04:01:28;;;;;;;;;;;19.50;87.50;;;;;;5068448;28;19924;-63
2022/09/26 04:03:54;;;;;;;;;;;20.00;87.60;;;;;;5059043;28;20348;-62
2022/09/26 04:06:20;;;;;;;;;;;19.60;87.40;;;;;;5055108;28;19972;-61
2022/09/26 04:08:47;;;;;;;;;;;19.50;87.30;;;;;;5055519;28;19975;-62
2022/09/26 04:11:13;;;;;;;;;;;19.90;87.60;;;;;;5065620;28;20365;-62
2022/09/26 04:13:39;;;;;;;;;;;19.60;87.40;;;;;;5073860;28;19932;-64
2022/09/26 04:16:05;;;;;;;;;;;19.50;87.30;;;;;;5075510;28;19928;-61
2022/09/26 04:18:31;;;;;;;;;;;19.70;87.60;;;;;;5075311;28;19930;-61
2022/09/26 04:20:57;;;;;;;;;;;19.70;87.60;;;;;;5067864;28;19925;-63
2022/09/26 04:23:23;;;;;;;;;;;;;;;;;;5054882;28;20020;-62
2022/09/26 04:25:49;;;;;;;;;;;19.70;86.20;;;;;;5054876;28;19924;-61
2022/09/26 04:28:15;;;;;;;;;;;19.70;87.60;;;;;;5065200;28;19932;-63
2022/09/26 04:30:41;;;;;;;;;;;19.60;87.60;;;;;;5073713;28;19978;-63
2022/09/26 04:33:06;;;;;;;;;;;19.70;87.70;;;;;;5074949;28;19929;-63
2022/09/26 04:35:32;;;;;;;;;;;19.80;87.70;;;;;;5075231;28;19932;-62
2022/09/26 04:37:58;;;;;;;;;;;19.40;87.50;;;;;;5074803;28;19925;-66
2022/09/26 04:40:23;;;;;;;;;;;19.70;87.70;;;;;;5074464;28;19928;-62
2022/09/26 04:42:49;;;;;;;;;;;19.60;87.60;;;;;;5073026;28;19939;-61
2022/09/26 04:45:15;;;;;;;;;;;19.40;87.50;;;;;;5074342;28;20267;-63
2022/09/26 04:47:40;;;;;;;;;;;19.80;87.70;;;;;;5074735;28;19999;-63
2022/09/26 04:50:06;;;;;;;;;;;19.60;87.60;;;;;;5074578;28;19925;-63
2022/09/26 04:52:32;;;;;;;;;;;19.70;87.60;;;;;;5072865;28;19924;-61
2022/09/26 04:54:58;;;;;;;;;;;19.60;87.60;;;;;;5074600;28;19932;-63
2022/09/26 04:57:23;;;;;;;;;;;19.70;87.60;;;;;;5075071;28;19932;-64
2022/09/26 04:59:49;;;;;;;;;;;19.70;87.60;;;;;;5074842;28;19939;-64
2022/09/26 05:02:15;;;;;;;;;;;19.30;87.40;;;;;;5073786;28;19931;-65
2022/09/26 05:04:40;;;;;;;;;;;19.50;87.50;;;;;;5058270;28;19928;-61
2022/09/26 05:07:06;;;;;;;;;;;19.70;87.60;;;;;;5062401;28;20007;-62
2022/09/26 05:09:32;;;;;;;;;;;19.60;87.60;;;;;;5073632;28;19924;-63
2022/09/26 05:11:57;;;;;;;;;;;19.60;87.70;;;;;;5073695;28;19924;-65
2022/09/26 05:14:24;;;;;;;;;;;19.70;87.80;;;;;;5072409;28;20330;-62
2022/09/26 05:16:49;;;;;;;;;;;19.60;87.70;;;;;;5074315;28;19969;-62
2022/09/26 05:19:15;;;;;;;;;;;19.60;87.70;;;;;;5073924;28;19929;-63
2022/09/26 05:21:42;;;;;;;;;;;19.80;87.80;;;;;;5073914;28;19924;-62
2022/09/26 05:26:51;;;;;;;;;;;19.40;87.60;;;;;;5073535;28;19931;-67
2022/09/26 05:29:19;;;;;;;;;;;19.80;87.90;;;;;;5074061;28;19924;-67
2022/09/26 05:31:45;;;;;;;;;;;19.60;87.80;;;;;;5074131;28;19925;-67
2022/09/26 05:34:11;;;;;;;;;;;;;;;;;;5073811;28;19935;-66
2022/09/26 05:36:36;;;;;;;;;;;19.60;87.70;;;;;;5069344;28;20019;-67
2022/09/26 05:39:03;;;;;;;;;;;19.40;87.70;;;;;;5072885;28;20010;-66
2022/09/26 05:41:32;;;;;;;;;;;19.40;87.70;;;;;;5074001;28;20339;-66
2022/09/26 05:43:58;;;;;;;;;;;19.50;87.80;;;;;;5074422;28;19925;-66
2022/09/26 05:46:24;;;;;;;;;;;19.30;87.60;;;;;;5066136;28;19948;-66
2022/09/26 05:48:50;;;;;;;;;;;19.50;87.70;;;;;;5053924;28;19925;-64
2022/09/26 05:51:16;;;;;;;;;;;19.50;87.80;;;;;;5054690;28;20033;-65
2022/09/26 05:53:42;;;;;;;;;;;19.30;87.70;;;;;;5068243;28;19925;-66
2022/09/26 05:56:08;;;;;;;;;;;19.30;87.60;;;;;;5075975;28;19925;-64
2022/09/26 05:58:36;;;;;;;;;;;19.40;87.70;;;;;;5077974;28;20011;-64
2022/09/26 06:01:01;;;;;;;;;;;19.40;87.70;;;;;;5077966;28;20390;-65
2022/09/26 06:03:27;;;;;;;;;;;19.30;87.70;;;;;;5077856;28;19982;-62
2022/09/26 06:05:53;;;;;;;;;;;19.50;87.80;;;;;;5077479;28;19929;-61
2022/09/26 06:08:19;;;;;;;;;;;19.50;87.80;;;;;;5061260;28;19932;-62
2022/09/26 06:10:44;;;;;;;;;;;19.60;87.80;;;;;;5076691;28;19971;-62
2022/09/26 06:13:14;;;;;;;;;;;19.50;87.80;;;;;;5077672;28;19931;-62
2022/09/26 06:15:42;;;;;;;;;;;19.20;87.60;;;;;;5077562;28;19929;-63
2022/09/26 06:18:07;;;;;;;;;;;19.40;87.70;;;;;;5075849;28;19925;-63
2022/09/26 06:20:33;;;;;;;;;;;19.60;87.80;;;;;;5077598;28;19928;-62
2022/09/26 06:22:59;;;;;;;;;;;19.50;87.80;;;;;;5077496;28;19921;-61
2022/09/26 06:25:25;;;;;;;;;;;19.30;87.60;;;;;;5074620;28;20008;-67
2022/09/26 06:27:54;;;;;;;;;;;19.50;87.70;;;;;;5076375;28;19983;-64
2022/09/26 06:30:22;;;;;;;;;;;19.30;87.60;;;;;;5057121;28;20278;-64
2022/09/26 06:32:48;;;;;;;;;;;19.60;87.70;;;;;;5055806;28;19931;-63
2022/09/26 06:35:13;;;;;;;;;;;19.50;87.60;;;;;;5060891;28;21329;-67
2022/09/26 06:37:39;;;;;;;;;;;19.60;87.60;;;;;;5076797;28;19931;-67
2022/09/26 06:40:07;;;;;;;;;;;19.30;87.40;;;;;;5064122;28;20286;-67
2022/09/26 06:42:36;;;;;;;;;;;19.50;87.60;;;;;;5056842;28;19935;-65
2022/09/26 06:45:06;;;;;;;;;;;19.50;87.60;;;;;;5069785;28;19925;-62
2022/09/26 06:47:32;;;;;;;;;;;19.40;87.50;;;;;;5075494;28;19928;-62
2022/09/26 06:49:58;;;;;;;;;;;19.60;87.60;;;;;;5059493;28;19937;-62
2022/09/26 06:52:25;;;;;;;;;;;19.30;87.40;;;;;;5056979;28;19929;-68
2022/09/26 06:54:51;;;;;;;;;;;19.40;87.50;;;;;;5056644;28;19999;-70
2022/09/26 06:57:17;;;;;;;;;;;19.40;87.40;;;;;;5066274;28;19929;-71
2022/09/26 06:59:42;;;;;;;;;;;19.30;87.40;;;;;;5075453;28;19967;-61
2022/09/26 07:02:08;;;;;;;;;;;19.30;87.40;;;;;;5074395;28;19968;-61
2022/09/26 07:04:34;;;;;;;;;;;19.60;87.50;;;;;;5075404;28;19928;-67
2022/09/26 07:07:00;;;;;;;;;;;19.50;87.30;;;;;;5058485;28;20011;-62
2022/09/26 07:09:26;;;;;;;;;;;19.60;87.40;;;;;;5076091;28;20054;-61
2022/09/26 07:11:52;;;;;;;;;;;19.50;87.30;;;;;;5059997;28;20014;-60
2022/09/26 07:14:18;;;;;;;;;;;19.60;87.30;;;;;;5071818;28;20393;-61
2022/09/26 07:16:44;;;;;;;;;;;19.60;87.30;;;;;;5076536;28;19989;-61
2022/09/26 07:19:13;;;;;;;;;;;19.80;87.40;;;;;;5071841;28;19925;-67
2022/09/26 07:21:40;;;;;;;;;;;19.60;87.20;;;;;;5066687;28;19932;-67
2022/09/26 07:24:07;;;;;;;;;;;19.80;87.40;;;;;;5056038;28;19925;-61
2022/09/26 07:26:33;;;;;;;;;;;19.70;87.10;;;;;;5056339;28;19929;-61
2022/09/26 07:28:59;;;;;;;;;;;19.50;87.20;;;;;;5061144;28;20000;-61
2022/09/26 07:31:25;;;;;;;;;;;19.50;87.20;;;;;;5074914;28;19932;-63
2022/09/26 07:33:51;;;;;;;;;;;19.40;87.10;;;;;;5057804;28;20278;-68
2022/09/26 07:36:19;;;;;;;;;;;19.50;87.20;;;;;;5070893;28;19925;-61
2022/09/26 07:38:49;;;;;;;;;;;19.60;87.20;;;;;;5072936;28;20846;-73
2022/09/26 07:41:16;;;;;;;;;;;19.40;87.10;;;;;;5075686;28;20337;-61
2022/09/26 07:43:42;;;;;;;;;;;19.70;87.30;;;;;;5075708;28;19924;-63
2022/09/26 07:51:38;;;;;;;;;;;19.60;87.30;;;;;;5058745;28;19931;-67
2022/09/26 07:54:03;;;;;;;;;;;19.50;87.20;;;;;;5075833;28;20014;-70
2022/09/26 07:56:32;;;;;;;;;;;19.50;87.20;;;;;;5075785;28;20270;-65
2022/09/26 07:59:00;;;;;;;;;;;19.50;87.10;;;;;;5075797;28;20310;-65
2022/09/26 08:01:26;;;;;;;;;;;19.60;86.80;;;;;;5072355;28;19920;-62
2022/09/26 08:03:53;;;;;;;;;;;19.60;86.80;;;;;;5075581;28;19931;-63
2022/09/26 08:06:19;;;;;;;;;;;19.60;87.00;;;;;;5073648;28;19964;-62
2022/09/26 08:08:46;;;;;;;;;;;19.50;86.80;;;;;;5071909;28;19959;-66
2022/09/26 08:11:15;;;;;;;;;;;19.80;87.00;;;;;;5068944;28;20290;-66
2022/09/26 08:13:42;;;;;;;;;;;;;;;;;;5073676;28;20300;-65
2022/09/26 08:16:08;;;;;;;;;;;19.50;86.90;;;;;;5075057;28;19924;-63
2022/09/26 08:18:40;;;;;;;;;;;19.60;87.10;;;;;;5075036;28;19924;-62
2022/09/26 08:21:08;;;;;;;;;;;19.40;86.90;;;;;;5074558;28;19963;-61
2022/09/26 08:23:35;;;;;;;;;;;19.50;86.60;;;;;;5073819;28;20336;-67
2022/09/26 08:26:05;;;;;;;;;;;19.40;86.90;;;;;;5074076;28;20428;-66
2022/09/26 08:28:33;;;;;;;;;;;19.30;86.80;;;;;;5074768;28;20339;-62
2022/09/26 08:31:02;;;;;;;;;;;19.50;87.00;;;;;;5075012;28;19932;-61
2022/09/26 08:33:28;;;;;;;;;;;19.50;87.00;;;;;;5064344;28;19984;-66
2022/09/26 08:35:54;;;;;;;;;;;19.40;87.00;;;;;;5072741;28;19975;-61
2022/09/26 08:38:20;;;;;;;;;;;19.60;87.00;;;;;;5074614;28;19925;-62
2022/09/26 08:40:53;;;;;;;;;;;19.40;86.90;;;;;;5075198;28;20050;-61
2022/09/26 08:43:28;;;;;;;;;;;19.70;87.00;;;;;;5055175;28;19921;-64
2022/09/26 08:46:30;;;;;;;;;;;19.50;86.80;;;;;;5073980;28;19925;-65
2022/09/26 08:48:52;;;;;;;;;;;;;;;;;;5073441;28;20062;-65
2022/09/26 08:51:24;;;;;;;;;;;19.60;86.80;;;;;;5074531;28;20251;-61
2022/09/26 08:53:55;;;;;;;;;;;19.30;86.40;;;;;;5068013;28;19951;-64
2022/09/26 08:56:36;;;;;;;;;;;19.50;86.70;;;;;;5068814;28;19925;-62
2022/09/26 08:59:02;;;;;;;;;;;19.30;86.50;;;;;;5073355;28;19925;-62
2022/09/26 09:01:29;;;;;;;;;;;19.40;86.50;;;;;;5073408;28;19932;-64
2022/09/26 09:03:57;;;;;;;;;;;19.20;86.50;;;;;;5066735;28;20333;-65
2022/09/26 09:06:22;;;;;;;;;;;19.40;86.60;;;;;;5053837;28;19924;-64
2022/09/26 09:08:51;;;;;;;;;;;19.30;86.60;;;;;;5066001;28;20013;-63
2022/09/26 09:11:35;;;;;;;;;;;19.50;86.70;;;;;;5071233;28;20370;-64
2022/09/26 09:14:07;;;;;;;;;;;19.20;86.50;;;;;;5070632;28;19931;-65
2022/09/26 09:16:52;;;;;;;;;;;19.30;85.70;;;;;;5074088;28;19994;-61
2022/09/26 09:19:18;;;;;;;;;;;19.40;86.70;;;;;;5074288;28;20299;-64
2022/09/26 09:21:43;;;;;;;;;;;19.40;86.70;;;;;;5073106;28;19936;-61
2022/09/26 09:24:28;;;;;;;;;;;19.50;86.80;;;;;;5066759;28;19932;-62
2022/09/26 09:27:02;;;;;;;;;;;19.30;86.70;;;;;;5054137;28;20334;-61
2022/09/26 09:29:32;;;;;;;;;;;19.40;86.80;;;;;;5054379;28;20282;-61
2022/09/26 09:31:59;;;;;;;;;;;19.40;86.90;;;;;;5053809;28;19925;-62
2022/09/26 09:34:26;;;;;;;;;;;19.50;86.80;;;;;;5057725;28;19931;-61
2022/09/26 09:36:57;;;;;;;;;;;19.40;86.80;;;;;;5073686;28;19924;-63
2022/09/26 09:39:34;;;;;;;;;;;19.60;86.80;;;;;;5073686;28;19929;-61
2022/09/26 09:42:05;;;;;;;;;;;19.60;86.90;;;;;;5073750;28;19932;-61
2022/09/26 09:44:48;;;;;;;;;;;19.40;86.70;;;;;;5070963;28;19924;-63
2022/09/26 09:47:14;;;;;;;;;;;19.20;86.50;;;;;;5061421;28;19932;-60
2022/09/26 09:49:41;;;;;;;;;;;19.40;86.70;;;;;;5070930;28;20018;-62
2022/09/26 09:52:30;;;;;;;;;;;19.20;86.60;;;;;;5072248;28;19928;-62
2022/09/26 09:55:14;;;;;;;;;;;19.40;86.80;;;;;;5006344;28;19933;-69
2022/09/26 09:57:52;;;;;;;;;;;19.40;86.90;;;;;;5008951;28;19936;-64
2022/09/26 10:00:19;;;;;;;;;;;19.30;86.00;;;;;;5011659;28;20358;-63
2022/09/26 10:02:45;;;;;;;;;;;19.30;86.90;;;;;;5011543;28;20319;-68
2022/09/26 10:05:12;;;;;;;;;;;19.50;87.00;;;;;;5009844;28;19926;-63
2022/09/26 10:07:40;;;;;;;;;;;19.40;87.00;;;;;;5008278;28;20330;-65
2022/09/26 10:10:09;;;;;;;;;;;19.30;87.00;;;;;;5011080;28;20403;-63
2022/09/26 10:12:37;;;;;;;;;;;19.40;87.10;;;;;;5008625;28;19931;-64
2022/09/26 10:15:11;;;;;;;;;;;19.40;86.90;;;;;;4979385;28;19952;-61
2022/09/26 10:17:37;;;;;;;;;;;19.20;86.70;;;;;;4995256;28;19952;-61
2022/09/26 10:20:03;;;;;;;;;;;19.20;87.00;;;;;;4994861;28;19933;-62
2022/09/26 10:22:36;;;;;;;;;;;19.00;87.30;;;;;;5010255;28;19925;-65
2022/09/26 10:25:04;;;;;;;;;;;18.80;87.80;;;;;;5008375;28;20315;-63
2022/09/26 10:27:30;;;;;;;;;;;18.50;88.30;;;;;;4990783;28;19926;-63
2022/09/26 10:29:57;;;;;;;;;;;18.50;88.50;;;;;;5011312;28;20093;-69
2022/09/26 10:32:24;;;;;;;;;;;18.30;88.90;;;;;;5034160;28;19975;-62
2022/09/26 10:35:25;;;;;;;;;;;18.40;89.10;;;;;;5055417;28;19920;-62
2022/09/26 10:38:01;;;;;;;;;;;18.40;89.20;;;;;;5033258;28;20015;-62
2022/09/26 10:40:47;;;;;;;;;;;18.40;89.20;;;;;;5035153;28;19972;-66
2022/09/26 10:43:21;;;;;;;;;;;18.60;89.20;;;;;;5034724;28;20055;-72
2022/09/26 10:45:54;;;;;;;;;;;18.50;88.90;;;;;;5033454;28;19926;-64
2022/09/26 10:48:20;;;;;;;;;;;18.60;88.90;;;;;;5029844;28;20352;-72
2022/09/26 10:50:47;;;;;;;;;;;18.70;88.80;;;;;;5033872;28;20020;-62
2022/09/26 10:53:16;;;;;;;;;;;18.60;88.70;;;;;;5034895;28;19929;-61
2022/09/26 10:55:56;;;;;;;;;;;18.60;88.60;;;;;;5035273;28;19925;-62
2022/09/26 10:58:24;;;;;;;;;;;18.50;88.40;;;;;;5028380;28;19925;-67
2022/09/26 11:00:50;;;;;;;;;;;18.80;88.60;;;;;;5034322;28;19947;-62
2022/09/26 11:03:18;;;;;;;;;;;18.80;88.50;;;;;;5034414;28;20002;-62
2022/09/26 11:05:56;;;;;;;;;;;18.80;88.40;;;;;;5034156;28;19929;-62
2022/09/26 11:08:30;;;;;;;;;;;18.90;88.40;;;;;;5033213;28;19929;-62
2022/09/26 11:10:57;;;;;;;;;;;19.00;88.40;;;;;;5040116;28;19966;-62
2022/09/26 11:13:24;;;;;;;;;;;19.00;88.30;;;;;;5073621;28;19975;-63
2022/09/26 11:16:09;;;;;;;;;;;18.90;88.20;;;;;;5060800;28;19939;-62
2022/09/26 11:18:50;;;;;;;;;;;19.00;88.20;;;;;;5064558;28;20371;-62
2022/09/26 11:21:18;;;;;;;;;;;19.10;88.50;;;;;;5073369;28;20446;-62
2022/09/26 11:23:45;;;;;;;;;;;19.20;88.50;;;;;;5076144;28;19924;-62
2022/09/26 11:26:17;;;;;;;;;;;19.10;88.60;;;;;;5069098;28;19924;-62
2022/09/26 11:28:48;;;;;;;;;;;19.30;88.70;;;;;;5058262;28;19929;-62
2022/09/26 11:31:14;;;;;;;;;;;;;;;;;;5074593;28;20025;-64
2022/09/26 11:33:44;;;;;;;;;;;19.00;88.50;;;;;;5074593;28;20034;-62
2022/09/26 11:36:13;;;;;;;;;;;19.00;88.60;;;;;;5074113;28;19940;-62
2022/09/26 11:38:46;;;;;;;;;;;19.10;88.60;;;;;;5074167;28;19924;-62
2022/09/26 11:41:38;;;;;;;;;;;19.10;88.60;;;;;;5075227;28;20344;-62
2022/09/26 11:44:19;;;;;;;;;;;19.00;88.60;;;;;;5073756;28;19970;-66
2022/09/26 11:47:09;;;;;;;;;;;19.40;88.80;;;;;;5058215;28;19932;-62
2022/09/26 11:49:38;;;;;;;;;;;19.40;88.70;;;;;;5010962;28;20295;-62
2022/09/26 11:52:13;;;;;;;;;;;19.30;88.60;;;;;;5011599;28;19932;-62
2022/09/26 11:54:44;;;;;;;;;;;19.40;88.80;;;;;;4994149;28;20012;-62
2022/09/26 11:57:30;;;;;;;;;;;19.40;88.80;;;;;;5014351;28;19925;-62
2022/09/26 12:00:01;;;;;;;;;;;19.40;88.80;;;;;;4997145;28;19925;-62
2022/09/26 12:02:30;;;;;;;;;;;19.50;88.80;;;;;;5011033;28;19970;-62
2022/09/26 12:05:02;;;;;;;;;;;19.20;88.60;;;;;;5013437;28;19926;-72
2022/09/26 12:07:37;;;;;;;;;;;19.50;88.90;;;;;;5013316;28;19933;-73
2022/09/26 12:10:12;;;;;;;;;;;19.30;88.90;;;;;;5013435;28;19933;-69
2022/09/26 12:12:48;;;;;;;;;;;19.10;88.70;;;;;;5007160;28;19926;-74
2022/09/26 12:15:19;;;;;;;;;;;19.20;88.80;;;;;;5011207;28;21435;-69
2022/09/26 12:18:03;;;;;;;;;;;19.50;89.00;;;;;;5003402;28;20105;-71
2022/09/26 12:20:28;;;;;;;;;;;19.30;89.00;;;;;;5006254;28;20015;-74
2022/09/26 12:22:55;;;;;;;;;;;19.20;88.90;;;;;;5010701;28;19934;-70
2022/09/26 12:25:29;;;;;;;;;;;19.10;88.90;;;;;;5012980;28;20005;-70
2022/09/26 12:28:01;;;;;;;;;;;19.20;88.90;;;;;;5053803;28;19925;-72
2022/09/26 12:30:32;;;;;;;;;;;19.30;89.10;;;;;;5062007;28;20019;-68
2022/09/26 12:33:19;;;;;;;;;;;19.40;89.40;;;;;;5056468;28;19925;-71
2022/09/26 12:35:57;;;;;;;;;;;19.10;89.30;;;;;;5064165;28;20339;-67
2022/09/26 12:38:33;;;;;;;;;;;19.10;89.20;;;;;;5072518;28;19935;-69
2022/09/26 12:41:01;;;;;;;;;;;19.30;89.20;;;;;;5063965;28;19931;-67
2022/09/26 12:43:43;;;;;;;;;;;19.50;89.40;;;;;;5074346;28;19924;-60
2022/09/26 12:46:15;;;;;;;;;;;19.30;89.20;;;;;;5071031;28;19975;-64
2022/09/26 12:48:52;;;;;;;;;;;19.30;89.20;;;;;;5072549;28;19931;-65
2022/09/26 12:51:22;;;;;;;;;;;19.20;89.10;;;;;;5073349;28;20373;-61
2022/09/26 12:53:57;;;;;;;;;;;19.30;89.20;;;;;;5074297;28;19924;-60
2022/09/26 12:56:43;;;;;;;;;;;19.40;89.30;;;;;;5067969;28;20393;-61
2022/09/26 12:59:21;;;;;;;;;;;19.50;89.30;;;;;;5073129;28;19924;-60
2022/09/26 13:01:50;;;;;;;;;;;19.50;89.40;;;;;;5074235;28;20286;-67
2022/09/26 13:04:39;;;;;;;;;;;19.40;89.30;;;;;;5074176;28;19920;-66
2022/09/26 13:07:08;;;;;;;;;;;19.40;89.30;;;;;;5069985;28;19924;-66
2022/09/26 13:09:37;;;;;;;;;;;19.30;89.20;;;;;;5066947;28;19924;-65
2022/09/26 13:12:03;;;;;;;;;;;19.50;89.30;;;;;;5070556;28;19971;-61
2022/09/26 13:14:30;;;;;;;;;;;;;;;;;;5073699;28;19920;-62
2022/09/26 13:17:04;;;;;;;;;;;19.40;89.30;;;;;;5073847;28;19924;-65
2022/09/26 13:19:52;;;;;;;;;;;19.40;89.30;;;;;;5073996;28;19920;-61
2022/09/26 13:22:33;;;;;;;;;;;19.70;89.50;;;;;;5067999;28;19932;-60
2022/09/26 13:25:06;;;;;;;;;;;19.50;89.40;;;;;;5052722;28;19932;-61
2022/09/26 13:27:53;;;;;;;;;;;19.60;89.50;;;;;;5053816;28;20394;-61
2022/09/26 13:30:23;;;;;;;;;;;19.40;89.30;;;;;;5065599;28;19932;-61
2022/09/26 13:32:58;;;;;;;;;;;19.60;89.40;;;;;;5069980;28;19924;-61
2022/09/26 13:35:26;;;;;;;;;;;19.50;89.40;;;;;;5073815;28;19977;-60
2022/09/26 13:38:04;;;;;;;;;;;19.70;89.60;;;;;;5074089;28;19974;-60
2022/09/26 13:40:51;;;;;;;;;;;19.70;89.60;;;;;;5073742;28;19924;-61
2022/09/26 13:43:24;;;;;;;;;;;19.50;89.50;;;;;;5056355;28;19929;-61
2022/09/26 13:45:54;;;;;;;;;;;19.60;89.50;;;;;;5053527;28;19978;-60
2022/09/26 13:48:27;;;;;;;;;;;19.70;89.60;;;;;;5052450;28;19925;-60
2022/09/26 13:50:54;;;;;;;;;;;19.80;89.50;;;;;;5065505;28;19935;-60
2022/09/26 13:53:36;;;;;;;;;;;19.90;89.60;;;;;;5052906;28;19932;-61
2022/09/26 13:56:21;;;;;;;;;;;19.60;89.40;;;;;;5073026;28;20366;-61
2022/09/26 13:58:48;;;;;;;;;;;19.50;89.40;;;;;;5073418;28;19924;-63
2022/09/26 14:01:24;;;;;;;;;;;19.90;89.60;;;;;;5065850;28;19920;-65
2022/09/26 14:04:11;;;;;;;;;;;19.70;89.50;;;;;;5073312;28;19979;-65
2022/09/26 14:06:41;;;;;;;;;;;19.80;89.50;;;;;;5070710;28;19998;-65
2022/09/26 14:09:24;;;;;;;;;;;19.80;89.50;;;;;;5067262;28;19925;-65
2022/09/26 14:11:50;;;;;;;;;;;19.80;89.50;;;;;;5071390;28;19924;-60
2022/09/26 14:14:20;;;;;;;;;;;19.70;89.40;;;;;;5076346;28;20020;-61
2022/09/26 14:16:45;;;;;;;;;;;19.90;89.60;;;;;;5077506;28;19964;-60
2022/09/26 14:19:27;;;;;;;;;;;19.60;89.40;;;;;;5075356;28;20404;-61
2022/09/26 14:22:00;;;;;;;;;;;19.90;89.60;;;;;;5076333;28;19924;-60
2022/09/26 14:24:28;;;;;;;;;;;19.60;89.30;;;;;;5070896;28;19924;-61
2022/09/26 14:27:04;;;;;;;;;;;19.80;89.40;;;;;;5075900;28;20291;-61
2022/09/26 14:29:45;;;;;;;;;;;19.80;89.40;;;;;;5076923;28;20023;-60
2022/09/26 14:32:17;;;;;;;;;;;19.70;89.40;;;;;;5077253;28;19932;-61
2022/09/26 14:34:43;;;;;;;;;;;19.70;89.50;;;;;;5076044;28;19963;-61
2022/09/26 14:37:22;;;;;;;;;;;19.90;89.60;;;;;;5075184;28;19928;-61
2022/09/26 14:39:51;;;;;;;;;;;19.70;89.60;;;;;;5076929;28;20325;-60
2022/09/26 14:42:25;;;;;;;;;;;19.90;89.70;;;;;;5075835;28;19925;-65